Airfield :
LOGIN :

Register | Disclaimer

   EN    FR    IT 

 










Legend :    VFR   Marginal VFR   IFR   Intensive IFR   Very Intensive IFR
Visi :
Ceiling :
>= 8 km
>= 3000ft
5 to 8 km
1000 to 3000 ft
1500m to 5 km
500 to 1000 ft
800 to 1500m
200 to 500 ft
< 800m
< 200 ft
Symbols :   Thunderstorms  Fog  Heavy snow  Heavy precipitations  Wind > 20 kt
SIGMETs :     Misc.  Thunderstorms  Icing  Turbulence  Mountain Waves  Volcanic Ashes







- Airport Elevation : 131 ft
- IATA code : TLL


EETN - Talinn

CURRENT METAR :
  • 130120Z 05012KT 9999 -SN SCT012 OVC017 01/M02 Q1030 R08/450395

EXPIRED METARs :
  • 130050Z 05013KT 9999 -SN BKN012 OVC018 01/M01 Q1030 R08/450395
  • 130020Z 04012KT 9999 -SHSN BKN011 FEW015CB OVC019 01/M01 Q1029 R08/450395
  • 122350Z 05010KT 9999 -SHSN BKN011 SCT015CB OVC020 01/M01 Q1029 R08/420295
  • 122320Z 03008KT 360V060 3100 SHSNGS FEW008 SCT014CB OVC020 00/M02 Q1029 R08/420295
  • 122250Z 04011KT 010V070 9999 -SN BKN019 OVC035 01/M02 Q1029 R08/420295

TAF TAF EETN
Valid from the 13 at 00:00 until the 14 at 00:00 UTC


122329Z 1300/1324 04010KT 9999 SCT008 OVC020
TEMPO 1300/1306 1400 SHSNGS BKN006 SCT012CB BKN020
PROB40
TEMPO 1300/1306 -FZDZ
TEMPO 1306/1316 2000 SHSNRA BKN006 SCT015CB BKN020
No reported NOTAMs for that airfield.



MET'MAP, your aeronautical weather chart ! - Copyright ORBIFLY December 2007 - Disclaimer

ORBIFLY MET'MAP TEAM :

Programming & Development : Alexandra Zaïnal
Concept & Development : Baudouin d'Aumeries
Co-Development & Prog : Marc-Olivier Méhu
Technical & hardware support : Manuel Goepfert

Contact : metmap@orbifly.com




SOURCES & CREDITS :

   NOAA